Time;durP1;ratioP1;P1;durP2;ratioP2;P2;SDS_P1;SDS_P2;PMS_P1;PMS_P2;Temp;Humidity;BMP_temperature;BMP_pressure;BME280_temperature;BME280_humidity;BME280_pressure;Samples;Min_cycle;Max_cycle;Signal;HPM_P1;HPM_P2
2022/10/10 00:00:57;;;;;;;;;;;;;;;9.64;81.90;101362.94;5524728;32;34446;-67
2022/10/10 00:04:04;;;;;;;;;;;;;;;9.71;81.92;101363.22;5550815;32;34796;-66
2022/10/10 00:07:11;;;;;;;;;;;;;;;9.71;84.00;101364.06;5537148;32;34369;-67
2022/10/10 00:10:18;;;;;;;;;;;;;;;9.90;83.46;101363.25;5550605;32;34939;-66
2022/10/10 00:13:23;;;;;;;;;;;;;;;9.94;85.10;101361.97;5550795;32;34239;-67
2022/10/10 00:16:31;;;;;;;;;;;;;;;9.86;84.95;101364.50;5550754;32;34396;-66
2022/10/10 00:19:40;;;;;;;;;;;;;;;9.70;85.44;101362.37;5550841;32;34891;-67
2022/10/10 00:22:47;;;;;;;;;;;;;;;9.57;86.88;101359.19;5550758;32;34103;-67
2022/10/10 00:25:52;;;;;;;;;;;;;;;9.54;87.72;101362.06;5550650;32;34353;-66
2022/10/10 00:28:59;;;;;;;;;;;;;;;9.44;89.38;101356.75;5536530;32;35037;-67
2022/10/10 00:32:05;;;;;;;;;;;;;;;9.40;90.19;101357.19;5537093;32;34229;-67
2022/10/10 00:35:14;;;;;;;;;;;;;;;9.26;91.00;101353.09;5550525;32;34354;-67
2022/10/10 00:38:21;;;;;;;;;;;;;;;9.15;94.02;101347.91;5550764;32;34978;-67
2022/10/10 00:41:31;;;;;;;;;;;;;;;9.11;94.47;101355.28;5550524;32;34228;-66
2022/10/10 00:44:43;;;;;;;;;;;;;;;9.18;95.72;101350.31;5537409;32;34293;-67
2022/10/10 00:47:52;;;;;;;;;;;;;;;9.05;95.16;101350.53;5550440;32;34630;-67
2022/10/10 00:51:04;;;;;;;;;;;;;;;8.97;95.41;101337.12;5550386;32;34655;-67
2022/10/10 00:54:11;;;;;;;;;;;;;;;8.96;94.28;101335.47;5536558;32;34624;-66
2022/10/10 00:57:18;;;;;;;;;;;;;;;9.01;94.16;101338.53;5537111;32;34216;-67
2022/10/10 01:00:25;;;;;;;;;;;;;;;9.07;93.27;101332.72;5550115;32;34541;-66
2022/10/10 01:03:34;;;;;;;;;;;;;;;9.00;93.28;101326.31;5537821;32;32876;-67
2022/10/10 01:06:41;;;;;;;;;;;;;;;9.02;94.00;101329.63;5552273;32;34775;-66
2022/10/10 01:09:49;;;;;;;;;;;;;;;8.97;94.76;101331.84;5552305;32;34784;-67
2022/10/10 01:13:02;;;;;;;;;;;;;;;8.99;94.22;101327.28;5552477;32;34873;-67
2022/10/10 01:16:10;;;;;;;;;;;;;;;8.88;93.74;101327.34;5552396;32;34275;-66
2022/10/10 01:19:21;;;;;;;;;;;;;;;8.81;94.59;101330.69;5552397;32;34679;-67
2022/10/10 01:22:36;;;;;;;;;;;;;;;8.74;93.61;101327.72;5552352;32;35097;-67
2022/10/10 01:25:57;;;;;;;;;;;;;;;8.67;93.45;101318.63;5552112;32;34272;-67
2022/10/10 01:29:19;;;;;;;;;;;;;;;8.59;94.12;101323.75;5552272;32;34274;-67
2022/10/10 01:32:33;;;;;;;;;;;;;;;8.61;95.11;101324.47;5538267;32;34738;-67
2022/10/10 01:35:41;;;;;;;;;;;;;;;8.58;94.20;101319.44;5552124;32;34337;-66
2022/10/10 01:39:10;;;;;;;;;;;;;;;8.61;92.62;101316.53;5538866;32;34754;-67
2022/10/10 01:42:24;;;;;;;;;;;;;;;8.62;91.88;101320.84;5524176;32;34249;-67
2022/10/10 01:45:31;;;;;;;;;;;;;;;8.55;92.55;101314.41;5538324;32;34327;-67
2022/10/10 01:48:37;;;;;;;;;;;;;;;8.45;93.60;101311.72;5552091;32;34376;-67
2022/10/10 01:51:46;;;;;;;;;;;;;;;8.35;94.02;101308.19;5552046;32;34167;-67
2022/10/10 01:55:00;;;;;;;;;;;;;;;8.34;94.47;101306.50;5552053;32;34269;-67
2022/10/10 01:58:21;;;;;;;;;;;;;;;8.33;93.76;101304.81;5551923;32;34852;-67
2022/10/10 02:01:40;;;;;;;;;;;;;;;8.28;95.08;101305.19;5538726;32;34884;-67
2022/10/10 02:04:55;;;;;;;;;;;;;;;8.32;94.22;101297.03;5551799;32;35060;-67
2022/10/10 02:08:05;;;;;;;;;;;;;;;8.39;92.64;101314.03;5551961;32;34251;-67
2022/10/10 02:11:12;;;;;;;;;;;;;;;8.40;92.44;101316.56;5537815;32;34597;-66
2022/10/10 02:14:24;;;;;;;;;;;;;;;8.33;93.57;101309.28;5552001;32;34655;-67
2022/10/10 02:17:34;;;;;;;;;;;;;;;8.27;93.96;101311.47;5552138;32;34222;-66
2022/10/10 02:20:41;;;;;;;;;;;;;;;8.23;94.25;101307.38;5551760;32;34461;-67
2022/10/10 02:23:49;;;;;;;;;;;;;;;8.20;95.70;101310.28;5552115;32;34456;-67
2022/10/10 02:26:58;;;;;;;;;;;;;;;8.17;94.97;101312.38;5551624;32;34933;-67
2022/10/10 02:30:05;;;;;;;;;;;;;;;8.13;95.10;101309.13;5551660;32;34306;-66
2022/10/10 02:33:13;;;;;;;;;;;;;;;8.13;95.49;101311.75;5551675;32;34289;-66
2022/10/10 02:36:21;;;;;;;;;;;;;;;8.16;94.72;101314.16;5538295;32;34965;-66
2022/10/10 02:39:30;;;;;;;;;;;;;;;8.19;94.06;101320.97;5537794;32;33415;-66
2022/10/10 02:42:37;;;;;;;;;;;;;;;8.21;94.00;101322.53;5551493;32;34968;-67
2022/10/10 02:45:43;;;;;;;;;;;;;;;8.29;93.83;101322.75;5551489;32;34363;-66
2022/10/10 02:48:52;;;;;;;;;;;;;;;8.32;94.08;101318.19;5551532;32;34692;-66
2022/10/10 02:51:59;;;;;;;;;;;;;;;8.33;94.31;101315.41;5538301;32;34871;-67
2022/10/10 02:55:07;;;;;;;;;;;;;;;8.28;95.06;101315.75;5551613;32;34887;-66
2022/10/10 02:58:14;;;;;;;;;;;;;;;8.38;95.94;101310.56;5551429;32;34369;-66
2022/10/10 03:01:21;;;;;;;;;;;;;;;8.40;97.46;101313.91;5551781;32;34301;-66
2022/10/10 03:04:32;;;;;;;;;;;;;;;8.31;97.82;101316.50;5537640;32;35210;-67
2022/10/10 03:07:41;;;;;;;;;;;;;;;8.20;98.16;101320.03;5537380;32;35621;-67
2022/10/10 03:10:56;;;;;;;;;;;;;;;8.09;99.92;101317.44;5551205;32;34295;-66
2022/10/10 03:14:02;;;;;;;;;;;;;;;8.06;100.00;101309.78;5537063;32;33658;-67
2022/10/10 03:17:12;;;;;;;;;;;;;;;8.00;100.00;101321.69;5551698;32;34431;-67
2022/10/10 03:20:18;;;;;;;;;;;;;;;7.96;100.00;101316.78;5551177;32;34334;-67
2022/10/10 03:23:26;;;;;;;;;;;;;;;7.92;100.00;101310.94;5551167;32;34106;-66
2022/10/10 03:26:31;;;;;;;;;;;;;;;8.10;100.00;101309.38;5550205;32;34350;-67
2022/10/10 03:29:40;;;;;;;;;;;;;;;8.21;100.00;101306.69;5551235;32;34677;-66
2022/10/10 03:32:46;;;;;;;;;;;;;;;8.20;100.00;101307.66;5551102;32;34344;-67
2022/10/10 03:35:54;;;;;;;;;;;;;;;8.07;100.00;101307.00;5551049;32;34302;-67
2022/10/10 03:39:00;;;;;;;;;;;;;;;7.99;100.00;101306.00;5550978;32;35078;-67
2022/10/10 03:42:07;;;;;;;;;;;;;;;7.92;100.00;101304.81;5551095;32;34327;-67
2022/10/10 03:45:11;;;;;;;;;;;;;;;7.85;100.00;101310.59;5537876;32;34846;-67
2022/10/10 03:48:17;;;;;;;;;;;;;;;7.83;100.00;101304.63;5551077;32;34733;-67
2022/10/10 03:51:24;;;;;;;;;;;;;;;7.79;100.00;101310.28;5550949;32;34818;-66
2022/10/10 03:54:30;;;;;;;;;;;;;;;7.78;100.00;101312.09;5551015;32;34343;-67
2022/10/10 03:57:38;;;;;;;;;;;;;;;7.69;100.00;101309.38;5550978;32;34275;-66
2022/10/10 04:00:53;;;;;;;;;;;;;;;7.72;100.00;101306.47;5550835;32;34230;-67
2022/10/10 04:04:00;;;;;;;;;;;;;;;7.82;100.00;101308.22;5550907;32;34131;-66
2022/10/10 04:07:07;;;;;;;;;;;;;;;8.00;100.00;101311.13;5477991;32;2354736;-67
2022/10/10 04:10:16;;;;;;;;;;;;;;;7.93;100.00;101302.06;5550650;32;34571;-67
2022/10/10 04:13:21;;;;;;;;;;;;;;;7.79;100.00;101308.47;5550667;32;34205;-66
2022/10/10 04:16:28;;;;;;;;;;;;;;;7.74;100.00;101296.62;5550802;32;34932;-66
2022/10/10 04:19:36;;;;;;;;;;;;;;;7.87;100.00;101305.19;5550692;32;34275;-66
2022/10/10 04:22:43;;;;;;;;;;;;;;;7.92;100.00;101299.53;5537629;32;34821;-66
2022/10/10 04:25:52;;;;;;;;;;;;;;;7.94;100.00;101306.34;5550439;32;34337;-67
2022/10/10 04:28:59;;;;;;;;;;;;;;;7.87;100.00;101311.31;5550651;32;34293;-66
2022/10/10 04:32:05;;;;;;;;;;;;;;;7.76;100.00;101306.09;5536634;32;35115;-66
2022/10/10 04:35:11;;;;;;;;;;;;;;;7.71;100.00;101300.34;5536724;32;34884;-67
2022/10/10 04:38:18;;;;;;;;;;;;;;;7.55;100.00;101299.09;5550130;32;34825;-66
2022/10/10 04:41:26;;;;;;;;;;;;;;;7.56;100.00;101306.03;5550343;32;35138;-67
2022/10/10 04:44:33;;;;;;;;;;;;;;;7.49;100.00;101305.72;5550294;32;34891;-66
2022/10/10 04:47:39;;;;;;;;;;;;;;;7.41;100.00;101306.31;5536224;32;35227;-66
2022/10/10 04:50:50;;;;;;;;;;;;;;;7.34;100.00;101307.81;5550046;32;34325;-67
2022/10/10 04:53:57;;;;;;;;;;;;;;;7.30;100.00;101308.19;5550187;32;34173;-67
2022/10/10 04:57:04;;;;;;;;;;;;;;;7.27;100.00;101308.41;5550506;32;34911;-66
2022/10/10 05:00:10;;;;;;;;;;;;;;;7.27;100.00;101311.06;5550116;32;34736;-66
2022/10/10 05:03:13;;;;;;;;;;;;;;;7.33;100.00;101308.75;5550087;32;34358;-66
2022/10/10 05:06:18;;;;;;;;;;;;;;;7.37;100.00;101317.25;5536409;32;35531;-67
2022/10/10 05:09:21;;;;;;;;;;;;;;;7.54;100.00;101310.63;5549641;32;34581;-66
2022/10/10 05:12:24;;;;;;;;;;;;;;;7.56;100.00;101313.97;5549837;32;35103;-66
2022/10/10 05:15:27;;;;;;;;;;;;;;;7.48;100.00;101308.47;5535942;32;35072;-66
2022/10/10 05:18:37;;;;;;;;;;;;;;;7.46;100.00;101315.66;5549519;32;34934;-67
2022/10/10 05:21:44;;;;;;;;;;;;;;;7.43;100.00;101311.50;5535392;32;34882;-66
2022/10/10 05:24:50;;;;;;;;;;;;;;;7.44;100.00;101313.19;5549454;32;34247;-65
2022/10/10 05:27:55;;;;;;;;;;;;;;;7.53;100.00;101317.72;5549659;32;35047;-65
2022/10/10 05:30:59;;;;;;;;;;;;;;;7.74;100.00;101317.75;5549291;32;34262;-66
2022/10/10 05:34:03;;;;;;;;;;;;;;;7.89;100.00;101313.81;5535429;32;34185;-65
2022/10/10 05:37:06;;;;;;;;;;;;;;;7.93;100.00;101315.25;5549382;32;34293;-66
2022/10/10 05:40:09;;;;;;;;;;;;;;;8.07;100.00;101316.75;5549193;32;34913;-66
2022/10/10 05:43:13;;;;;;;;;;;;;;;7.96;100.00;101320.28;5548916;32;34365;-66
2022/10/10 05:46:19;;;;;;;;;;;;;;;7.95;100.00;101315.13;5534749;32;34863;-67
2022/10/10 05:49:22;;;;;;;;;;;;;;;8.02;100.00;101318.94;5550501;32;34886;-66
2022/10/10 05:52:26;;;;;;;;;;;;;;;8.09;100.00;101320.91;5537908;32;34468;-66
2022/10/10 05:55:30;;;;;;;;;;;;;;;8.15;100.00;101322.22;5525051;32;34244;-67
2022/10/10 05:58:33;;;;;;;;;;;;;;;8.22;100.00;101328.66;5551681;32;34658;-66
2022/10/10 06:01:36;;;;;;;;;;;;;;;8.24;100.00;101335.50;5551538;32;34209;-67
2022/10/10 06:04:39;;;;;;;;;;;;;;;8.36;100.00;101330.19;5537379;32;34797;-67
2022/10/10 06:07:41;;;;;;;;;;;;;;;8.47;100.00;101333.56;5537810;32;34731;-67
2022/10/10 06:11:07;;;;;;;;;;;;;;;8.63;100.00;101336.59;5531300;32;34260;-67
2022/10/10 06:14:09;;;;;;;;;;;;;;;8.60;100.00;101342.16;5532111;32;34559;-67
2022/10/10 06:17:13;;;;;;;;;;;;;;;8.65;100.00;101326.72;5532046;32;34322;-65
2022/10/10 06:20:16;;;;;;;;;;;;;;;8.74;100.00;101338.31;5532072;32;34232;-66
2022/10/10 06:23:20;;;;;;;;;;;;;;;8.76;100.00;101332.88;5531836;32;34225;-67
2022/10/10 06:26:24;;;;;;;;;;;;;;;8.81;100.00;101334.13;5531719;32;34220;-67
2022/10/10 06:29:27;;;;;;;;;;;;;;;8.87;100.00;101327.47;5531986;32;35015;-67
2022/10/10 06:32:30;;;;;;;;;;;;;;;8.93;100.00;101327.78;5531885;32;34354;-66
2022/10/10 06:35:37;;;;;;;;;;;;;;;8.99;100.00;101319.34;5531011;32;35277;-66
2022/10/10 06:38:42;;;;;;;;;;;;;;;9.08;100.00;101320.31;5531452;32;35102;-66
2022/10/10 06:41:47;;;;;;;;;;;;;;;9.18;100.00;101318.53;5531035;32;34366;-67
2022/10/10 06:44:54;;;;;;;;;;;;;;;9.28;99.95;101316.75;5530949;32;34497;-67
2022/10/10 06:47:57;;;;;;;;;;;;;;;9.36;98.19;101327.50;5531733;32;34184;-67
2022/10/10 06:51:05;;;;;;;;;;;;;;;9.46;98.07;101328.34;5531752;32;34894;-66
2022/10/10 06:54:10;;;;;;;;;;;;;;;9.56;95.29;101325.69;5531904;32;34233;-66
2022/10/10 06:57:14;;;;;;;;;;;;;;;9.68;94.17;101329.06;5530998;32;34407;-66
2022/10/10 07:00:18;;;;;;;;;;;;;;;9.80;91.48;101334.09;5530439;32;35551;-68
2022/10/10 07:03:21;;;;;;;;;;;;;;;9.87;90.59;101337.88;5531790;32;34260;-67
2022/10/10 07:06:26;;;;;;;;;;;;;;;9.96;89.80;101331.72;5531830;32;34320;-66
2022/10/10 07:09:37;;;;;;;;;;;;;;;10.07;90.68;101327.25;5540338;32;34970;-66
2022/10/10 07:12:40;;;;;;;;;;;;;;;10.17;88.46;101320.12;5551188;32;35051;-66
2022/10/10 07:15:46;;;;;;;;;;;;;;;10.27;87.22;101326.25;5551054;32;35088;-67
2022/10/10 07:18:49;;;;;;;;;;;;;;;10.42;87.84;101327.47;5537433;32;35186;-66
2022/10/10 07:21:51;;;;;;;;;;;;;;;10.56;83.62;101318.22;5551056;32;34270;-66
2022/10/10 07:24:54;;;;;;;;;;;;;;;10.83;82.69;101328.87;5551147;32;34637;-67
2022/10/10 07:27:57;;;;;;;;;;;;;;;11.19;81.19;101327.97;5537424;32;33066;-67
2022/10/10 07:31:03;;;;;;;;;;;;;;;11.88;76.96;101319.41;5550999;32;34127;-68
2022/10/10 07:34:06;;;;;;;;;;;;;;;13.18;73.05;101317.53;5550977;32;34306;-67
2022/10/10 07:37:10;;;;;;;;;;;;;;;14.02;66.00;101320.84;5550924;32;34240;-68
2022/10/10 07:40:13;;;;;;;;;;;;;;;15.14;60.68;101323.44;5537144;32;34454;-68
2022/10/10 07:43:16;;;;;;;;;;;;;;;16.29;57.59;101327.81;5536678;32;33007;-68
2022/10/10 07:46:19;;;;;;;;;;;;;;;18.15;53.23;101325.41;5537513;32;35015;-68
2022/10/10 07:49:22;;;;;;;;;;;;;;;18.55;49.35;101329.22;5524145;32;34760;-66
2022/10/10 07:52:25;;;;;;;;;;;;;;;18.42;48.81;101313.81;5537187;32;34333;-68
2022/10/10 07:55:29;;;;;;;;;;;;;;;17.35;50.36;101320.25;5550886;32;34873;-68
2022/10/10 07:58:32;;;;;;;;;;;;;;;17.94;48.66;101326.25;5551007;32;34360;-68
2022/10/10 08:01:37;;;;;;;;;;;;;;;18.74;47.64;101325.00;5551046;32;34950;-68
2022/10/10 08:04:40;;;;;;;;;;;;;;;20.73;45.19;101329.53;5537154;32;34399;-68
2022/10/10 08:07:43;;;;;;;;;;;;;;;21.17;40.97;101327.97;5536832;32;34451;-69
2022/10/10 08:10:46;;;;;;;;;;;;;;;23.42;37.71;101325.00;5536203;32;33559;-69
2022/10/10 08:13:50;;;;;;;;;;;;;;;23.96;36.25;101332.97;5550395;32;34538;-69
2022/10/10 08:16:54;;;;;;;;;;;;;;;23.81;34.87;101328.00;5550642;32;34799;-68
2022/10/10 08:19:57;;;;;;;;;;;;;;;23.87;34.12;101328.13;5550429;32;34181;-69
2022/10/10 08:23:00;;;;;;;;;;;;;;;23.23;37.37;101322.31;5536739;32;35194;-69
2022/10/10 08:26:05;;;;;;;;;;;;;;;20.82;39.38;101317.50;5536404;32;32791;-68
2022/10/10 08:29:09;;;;;;;;;;;;;;;22.07;38.19;101310.63;5550498;32;34825;-68
2022/10/10 08:32:13;;;;;;;;;;;;;;;20.21;41.15;101314.25;5536717;32;34313;-68
2022/10/10 08:35:17;;;;;;;;;;;;;;;17.67;47.58;101301.00;5536293;32;34399;-67
2022/10/10 08:38:20;;;;;;;;;;;;;;;16.87;47.15;101305.63;5550000;32;34892;-67
2022/10/10 08:41:41;;;;;;;;;;;;;;;16.16;48.50;101300.84;5550366;32;34263;-69
2022/10/10 08:44:48;;;;;;;;;;;;;;;15.78;50.35;101298.13;5550470;32;34347;-67
2022/10/10 08:47:57;;;;;;;;;;;;;;;15.30;52.33;101295.78;5549824;32;34378;-67
2022/10/10 08:51:07;;;;;;;;;;;;;;;15.03;52.59;101284.56;5550478;32;34344;-66
2022/10/10 08:54:12;;;;;;;;;;;;;;;14.95;52.08;101291.78;5536415;32;32760;-66
2022/10/10 08:57:22;;;;;;;;;;;;;;;14.78;52.25;101294.53;5549763;32;34256;-67
2022/10/10 09:00:28;;;;;;;;;;;;;;;14.64;51.40;101292.56;5536115;32;34547;-67
2022/10/10 09:03:44;;;;;;;;;;;;;;;14.59;53.07;101280.72;5550028;32;34118;-67
2022/10/10 09:07:01;;;;;;;;;;;;;;;14.23;53.16;101270.44;5549727;32;34893;-67
2022/10/10 09:10:23;;;;;;;;;;;;;;;14.12;54.47;101269.97;5549329;32;34675;-67
2022/10/10 09:13:26;;;;;;;;;;;;;;;14.18;55.37;101271.97;5535841;32;35599;-67
2022/10/10 09:16:45;;;;;;;;;;;;;;;14.15;53.58;101262.44;5535891;32;36530;-67
2022/10/10 09:19:52;;;;;;;;;;;;;;;14.27;54.66;101273.63;5535664;32;34753;-66
2022/10/10 09:23:07;;;;;;;;;;;;;;;14.33;54.53;101263.06;5535760;32;35508;-67
2022/10/10 09:26:13;;;;;;;;;;;;;;;14.35;55.63;101265.59;5538151;32;35261;-69
2022/10/10 09:29:31;;;;;;;;;;;;;;;14.27;55.02;101255.78;5551760;32;34440;-67
2022/10/10 09:32:42;;;;;;;;;;;;;;;14.15;53.94;101256.28;5552023;32;34294;-66
2022/10/10 09:35:45;;;;;;;;;;;;;;;14.23;54.36;101251.75;5551864;32;34223;-67
2022/10/10 09:38:52;;;;;;;;;;;;;;;14.40;54.71;101254.41;5551790;32;34721;-66
2022/10/10 09:41:59;;;;;;;;;;;;;;;14.32;53.34;101258.75;5538664;32;35228;-67
2022/10/10 09:45:13;;;;;;;;;;;;;;;14.38;53.15;101256.44;5551945;32;34941;-66
2022/10/10 09:48:17;;;;;;;;;;;;;;;14.45;53.44;101252.06;5551973;32;34741;-68
2022/10/10 09:51:23;;;;;;;;;;;;;;;14.61;52.13;101246.69;5551711;32;34493;-67
2022/10/10 09:54:27;;;;;;;;;;;;;;;14.66;54.07;101242.50;5552242;32;34240;-66
2022/10/10 09:57:34;;;;;;;;;;;;;;;14.64;55.26;101247.16;5551699;32;34481;-67
2022/10/10 10:00:43;;;;;;;;;;;;;;;14.67;54.63;101246.81;5552365;32;34238;-66
2022/10/10 10:04:09;;;;;;;;;;;;;;;14.61;54.68;101244.84;5551949;32;34877;-67
2022/10/10 10:07:32;;;;;;;;;;;;;;;14.85;52.02;101249.25;5537483;32;33331;-67
2022/10/10 10:10:37;;;;;;;;;;;;;;;14.93;51.99;101237.69;5551577;32;34755;-68
2022/10/10 10:13:42;;;;;;;;;;;;;;;14.93;52.81;101238.53;5551460;32;34670;-69
2022/10/10 10:16:46;;;;;;;;;;;;;;;15.10;51.81;101234.72;5551729;32;34901;-68
2022/10/10 10:19:50;;;;;;;;;;;;;;;15.17;51.98;101229.53;5538052;32;34979;-67
2022/10/10 10:22:54;;;;;;;;;;;;;;;15.29;51.11;101229.97;5551547;32;34479;-65
2022/10/10 10:26:01;;;;;;;;;;;;;;;15.40;50.48;101230.34;5537988;32;32974;-68
2022/10/10 10:29:25;;;;;;;;;;;;;;;15.47;49.42;101231.31;5551227;32;35021;-67
2022/10/10 10:32:53;;;;;;;;;;;;;;;15.62;49.51;101234.09;5551067;32;34276;-66
2022/10/10 10:36:04;;;;;;;;;;;;;;;15.65;49.24;101229.19;5537683;32;34313;-67
2022/10/10 10:39:16;;;;;;;;;;;;;;;16.01;48.60;101223.19;5551710;32;34225;-67
2022/10/10 10:42:23;;;;;;;;;;;;;;;16.10;49.34;101208.72;5551501;32;34816;-67
2022/10/10 10:45:36;;;;;;;;;;;;;;;16.41;46.84;101209.34;5524704;32;32962;-67
2022/10/10 10:49:09;;;;;;;;;;;;;;;16.66;44.91;101201.03;5551372;32;34959;-66
2022/10/10 10:52:41;;;;;;;;;;;;;;;16.86;43.16;101196.75;5538263;32;34359;-66
2022/10/10 10:55:47;;;;;;;;;;;;;;;17.18;43.14;101190.09;5524846;32;34660;-66
2022/10/10 10:59:01;;;;;;;;;;;;;;;19.24;37.01;101192.81;5550554;32;34346;-67
2022/10/10 11:02:35;;;;;;;;;;;;;;;23.56;30.06;101193.75;5540334;32;34328;-67
2022/10/10 11:05:58;;;;;;;;;;;;;;;27.01;26.25;101194.31;5551211;32;34668;-67
2022/10/10 11:09:13;;;;;;;;;;;;;;;28.77;23.08;101196.66;5537140;32;34243;-68
2022/10/10 11:12:41;;;;;;;;;;;;;;;30.01;21.57;101195.41;5551014;32;34328;-68
2022/10/10 11:15:58;;;;;;;;;;;;;;;31.01;21.19;101192.53;5551127;32;34188;-68
2022/10/10 11:19:17;;;;;;;;;;;;;;;30.17;21.62;101187.97;5551332;32;34403;-68
2022/10/10 11:22:24;;;;;;;;;;;;;;;31.30;20.54;101184.41;5551062;32;34750;-69
2022/10/10 11:25:30;;;;;;;;;;;;;;;30.80;21.13;101175.41;5551214;32;34156;-69
2022/10/10 11:28:44;;;;;;;;;;;;;;;33.22;18.54;101170.41;5550861;32;34511;-69
2022/10/10 11:31:54;;;;;;;;;;;;;;;33.11;19.13;101172.50;5536956;32;34922;-68
2022/10/10 11:35:06;;;;;;;;;;;;;;;35.32;17.64;101165.63;5551511;32;34282;-68
2022/10/10 11:38:14;;;;;;;;;;;;;;;33.35;18.55;101155.91;5537416;32;34351;-68
2022/10/10 11:41:25;;;;;;;;;;;;;;;34.05;17.82;101149.13;5550882;32;34202;-67
2022/10/10 11:44:31;;;;;;;;;;;;;;;34.10;17.70;101147.38;5537185;32;35640;-68
2022/10/10 11:47:55;;;;;;;;;;;;;;;32.95;19.06;101140.84;5523814;32;32947;-69
2022/10/10 11:51:03;;;;;;;;;;;;;;;31.52;21.26;101130.72;5537313;32;34344;-69
2022/10/10 11:54:31;;;;;;;;;;;;;;;33.98;18.55;101134.97;5537023;32;34245;-69
2022/10/10 11:57:40;;;;;;;;;;;;;;;33.85;17.92;101132.19;5550936;32;34853;-68
2022/10/10 12:00:51;;;;;;;;;;;;;;;32.88;18.96;101129.41;5550511;32;35194;-68
2022/10/10 12:03:58;;;;;;;;;;;;;;;33.93;17.36;101126.78;5551001;32;34943;-69
2022/10/10 12:07:05;;;;;;;;;;;;;;;33.38;18.87;101125.03;5537634;32;35273;-67
2022/10/10 12:10:15;;;;;;;;;;;;;;;32.90;17.71;101108.78;5536876;32;34219;-68
2022/10/10 12:13:18;;;;;;;;;;;;;;;32.51;19.28;101110.97;5524408;32;34208;-68
2022/10/10 12:16:24;;;;;;;;;;;;;;;31.84;18.67;101110.97;5550244;32;35088;-68
2022/10/10 12:19:33;;;;;;;;;;;;;;;31.00;19.74;101097.72;5524810;32;35116;-68
2022/10/10 12:22:36;;;;;;;;;;;;;;;27.86;22.13;101092.53;5550524;32;34930;-68
2022/10/10 12:25:41;;;;;;;;;;;;;;;26.00;25.06;101089.62;5550527;32;34958;-68
2022/10/10 12:29:10;;;;;;;;;;;;;;;25.16;27.14;101083.50;5537164;32;33659;-67
2022/10/10 12:32:13;;;;;;;;;;;;;;;24.88;26.90;101084.37;5533313;32;36785;-67
2022/10/10 12:35:27;;;;;;;;;;;;;;;23.60;26.88;101081.16;5550479;32;34892;-67
2022/10/10 12:38:31;;;;;;;;;;;;;;;23.38;27.60;101086.34;5550144;32;34673;-68
2022/10/10 12:41:42;;;;;;;;;;;;;;;23.29;27.67;101083.12;5550183;32;34377;-67
2022/10/10 12:44:51;;;;;;;;;;;;;;;22.38;31.67;101079.91;5550358;32;34777;-67
2022/10/10 12:47:57;;;;;;;;;;;;;;;22.45;29.73;101072.56;5550228;32;34175;-66
2022/10/10 12:51:18;;;;;;;;;;;;;;;22.45;29.35;101067.97;5550251;32;34922;-67
2022/10/10 12:54:26;;;;;;;;;;;;;;;22.48;28.87;101081.03;5536683;32;34140;-66
2022/10/10 12:57:35;;;;;;;;;;;;;;;22.02;30.87;101070.81;5536651;32;34396;-65
2022/10/10 13:00:41;;;;;;;;;;;;;;;21.97;30.87;101065.25;5536093;32;32902;-66
2022/10/10 13:03:45;;;;;;;;;;;;;;;22.33;30.32;101066.25;5549639;32;34626;-66
2022/10/10 13:06:52;;;;;;;;;;;;;;;22.57;30.48;101064.47;5549541;32;34974;-67
2022/10/10 13:10:04;;;;;;;;;;;;;;;22.16;29.77;101067.94;5549385;32;34306;-67
2022/10/10 13:13:12;;;;;;;;;;;;;;;22.37;30.58;101070.13;5535692;32;34704;-67
2022/10/10 13:16:20;;;;;;;;;;;;;;;22.41;32.20;101064.03;5549669;32;35224;-66
2022/10/10 13:19:24;;;;;;;;;;;;;;;22.09;29.05;101058.03;5549434;32;34644;-66
2022/10/10 13:22:29;;;;;;;;;;;;;;;21.83;29.68;101046.69;5535746;32;34454;-67
2022/10/10 13:25:36;;;;;;;;;;;;;;;21.68;29.11;101045.19;5535807;32;35053;-66
2022/10/10 13:28:43;;;;;;;;;;;;;;;21.54;31.15;101043.66;5535596;32;33776;-66
2022/10/10 13:31:48;;;;;;;;;;;;;;;21.46;31.17;101045.81;5535304;32;35772;-66
2022/10/10 13:34:57;;;;;;;;;;;;;;;21.23;31.44;101038.38;5549105;32;34554;-67
2022/10/10 13:38:00;;;;;;;;;;;;;;;20.62;31.92;101038.19;5535274;32;34257;-66
2022/10/10 13:41:03;;;;;;;;;;;;;;;20.97;32.34;101041.25;5548871;32;34348;-67
2022/10/10 13:44:29;;;;;;;;;;;;;;;21.17;31.82;101034.69;5522802;32;35019;-66
2022/10/10 13:47:40;;;;;;;;;;;;;;;21.02;32.96;101036.03;5548805;32;34304;-67
2022/10/10 13:50:44;;;;;;;;;;;;;;;20.83;33.72;101035.97;5535173;32;34345;-67
2022/10/10 13:53:54;;;;;;;;;;;;;;;20.85;32.59;101027.66;5548680;32;34634;-67
2022/10/10 13:57:00;;;;;;;;;;;;;;;20.59;33.59;101017.06;5548729;32;35011;-67
2022/10/10 14:00:06;;;;;;;;;;;;;;;20.01;33.75;101017.13;5534405;32;35117;-67
2022/10/10 14:03:14;;;;;;;;;;;;;;;19.65;35.01;101006.94;5534671;32;34264;-67
2022/10/10 14:06:19;;;;;;;;;;;;;;;19.38;35.08;101006.13;5534272;32;34507;-67
2022/10/10 14:09:24;;;;;;;;;;;;;;;19.21;36.04;101007.63;5534583;32;35662;-67
2022/10/10 14:12:32;;;;;;;;;;;;;;;19.12;36.43;101011.56;5537601;32;33031;-67
2022/10/10 14:15:39;;;;;;;;;;;;;;;19.17;36.14;101009.03;5536887;32;35543;-67
2022/10/10 14:18:43;;;;;;;;;;;;;;;19.34;38.07;101004.91;5551173;32;35005;-66
2022/10/10 14:21:49;;;;;;;;;;;;;;;19.23;37.62;101007.38;5551392;32;34210;-66
2022/10/10 14:24:53;;;;;;;;;;;;;;;19.11;40.19;100999.13;5550998;32;34298;-67
2022/10/10 14:27:56;;;;;;;;;;;;;;;19.00;40.62;100997.91;5536826;32;34408;-66
2022/10/10 14:31:01;;;;;;;;;;;;;;;18.84;40.29;100994.78;5550995;32;34306;-66
2022/10/10 14:34:10;;;;;;;;;;;;;;;18.50;40.72;100985.84;5524703;32;35492;-66
2022/10/10 14:37:19;;;;;;;;;;;;;;;18.45;40.68;100985.63;5537248;32;35057;-66
2022/10/10 14:40:26;;;;;;;;;;;;;;;18.21;40.28;100988.88;5550518;32;34986;-66
2022/10/10 14:43:30;;;;;;;;;;;;;;;18.06;40.74;100990.91;5550427;32;34325;-66
2022/10/10 14:46:35;;;;;;;;;;;;;;;18.04;41.00;100984.91;5550593;32;34174;-66
2022/10/10 14:49:39;;;;;;;;;;;;;;;17.87;41.51;100987.13;5551241;32;34758;-67
2022/10/10 14:52:43;;;;;;;;;;;;;;;17.75;43.19;100986.88;5536339;32;34658;-67
2022/10/10 14:55:48;;;;;;;;;;;;;;;17.66;44.34;100988.09;5550837;32;35064;-66
2022/10/10 14:58:58;;;;;;;;;;;;;;;17.62;44.09;100988.69;5550764;32;34903;-67
2022/10/10 15:02:03;;;;;;;;;;;;;;;17.57;46.66;100977.69;5550458;32;34275;-67
2022/10/10 15:05:06;;;;;;;;;;;;;;;17.38;46.62;100980.03;5550709;32;34116;-66
2022/10/10 15:08:15;;;;;;;;;;;;;;;17.35;46.63;100979.59;5549966;32;34411;-66
2022/10/10 15:11:18;;;;;;;;;;;;;;;17.19;45.39;100972.69;5550381;32;34357;-67
2022/10/10 15:14:23;;;;;;;;;;;;;;;17.07;47.73;100986.84;5536404;32;34575;-67
2022/10/10 15:17:28;;;;;;;;;;;;;;;16.90;46.49;100975.56;5550570;32;34947;-67
2022/10/10 15:20:33;;;;;;;;;;;;;;;16.76;47.50;100971.12;5535558;32;34929;-66
2022/10/10 15:23:38;;;;;;;;;;;;;;;16.59;47.91;100980.47;5537163;32;34765;-65
2022/10/10 15:26:43;;;;;;;;;;;;;;;16.46;47.93;100971.25;5536087;32;34323;-66
2022/10/10 15:29:48;;;;;;;;;;;;;;;16.41;49.68;100973.66;5549916;32;34388;-67
2022/10/10 15:32:53;;;;;;;;;;;;;;;16.26;49.10;100967.56;5536146;32;34017;-66
2022/10/10 15:36:01;;;;;;;;;;;;;;;16.16;48.95;100968.91;5536561;32;33538;-66
2022/10/10 15:39:18;;;;;;;;;;;;;;;16.05;51.29;100970.22;5549863;32;34435;-66
2022/10/10 15:42:24;;;;;;;;;;;;;;;15.97;51.02;100968.50;5524097;32;37045;-66
2022/10/10 15:45:29;;;;;;;;;;;;;;;15.80;51.21;100967.03;5536752;32;34303;-66
2022/10/10 15:48:59;;;;;;;;;;;;;;;15.68;51.79;100963.19;5550688;32;34894;-66
2022/10/10 15:52:05;;;;;;;;;;;;;;;15.59;51.48;100967.78;5536669;32;34680;-66
2022/10/10 15:55:13;;;;;;;;;;;;;;;15.50;53.27;100971.56;5550258;32;34296;-66
2022/10/10 15:58:18;;;;;;;;;;;;;;;15.42;54.52;100962.81;5550486;32;34434;-65
2022/10/10 16:01:25;;;;;;;;;;;;;;;15.26;56.44;100966.50;5536306;32;34565;-65
2022/10/10 16:04:32;;;;;;;;;;;;;;;15.14;56.16;100965.28;5550229;32;34863;-66
2022/10/10 16:07:39;;;;;;;;;;;;;;;15.08;56.91;100963.34;5550137;32;34274;-66